createdAt,value
2022-11-13T00:02:36.066Z,7.75
2022-11-13T00:07:56.763Z,8.31
2022-11-13T00:13:17.389Z,8.15
2022-11-13T00:18:39.752Z,8.43
2022-11-13T00:24:00.162Z,8.68
2022-11-13T00:29:20.582Z,8.52
2022-11-13T00:34:47.662Z,7.21
2022-11-13T00:40:09.426Z,7.14
2022-11-13T00:45:30.281Z,7.65
2022-11-13T00:50:50.628Z,5.74
2022-11-13T00:56:11.460Z,5.96
2022-11-13T01:01:32.497Z,7.29
2022-11-13T01:06:53.269Z,7.74
2022-11-13T01:12:13.960Z,8.32
2022-11-13T01:17:34.032Z,8.21
2022-11-13T01:22:54.847Z,8.70
2022-11-13T01:28:15.552Z,8.50
2022-11-13T01:33:36.198Z,8.08
2022-11-13T01:38:57.052Z,7.23
2022-11-13T01:44:20.033Z,7.33
2022-11-13T01:49:43.875Z,7.87
2022-11-13T01:55:11.981Z,7.01
2022-11-13T02:00:32.444Z,6.74
2022-11-13T02:05:54.153Z,5.97
2022-11-13T02:11:14.823Z,6.08
2022-11-13T02:16:37.870Z,6.45
2022-11-13T02:22:10.050Z,6.69
2022-11-13T02:27:46.023Z,6.91
2022-11-13T02:33:28.586Z,6.99
2022-11-13T02:38:51.017Z,7.13
2022-11-13T02:44:11.736Z,6.92
2022-11-13T02:49:32.314Z,7.05
2022-11-13T02:54:52.992Z,6.46
2022-11-13T03:00:14.506Z,6.73
2022-11-13T03:05:34.995Z,5.69
2022-11-13T03:10:55.432Z,6.22
2022-11-13T03:16:17.839Z,6.24
2022-11-13T03:21:38.835Z,7.08
2022-11-13T03:26:59.297Z,6.58
2022-11-13T03:32:19.873Z,7.80
2022-11-13T03:37:40.703Z,7.19
2022-11-13T03:43:00.973Z,6.19
2022-11-13T03:48:21.177Z,6.90
2022-11-13T03:53:41.713Z,7.17
2022-11-13T03:59:02.019Z,6.37
2022-11-13T04:04:22.650Z,6.52
2022-11-13T04:09:43.066Z,6.15
2022-11-13T04:15:03.468Z,5.74
2022-11-13T04:20:24.639Z,6.64
2022-11-13T04:25:45.366Z,5.77
2022-11-13T04:31:06.022Z,5.66
2022-11-13T04:36:26.743Z,4.88
2022-11-13T04:42:05.753Z,5.26
2022-11-13T04:47:26.282Z,6.41
2022-11-13T04:52:47.056Z,3.51
2022-11-13T04:58:07.574Z,3.98
2022-11-13T05:03:28.352Z,5.65
2022-11-13T05:08:49.009Z,6.15
2022-11-13T05:14:12.630Z,6.85
2022-11-13T05:19:34.320Z,6.73
2022-11-13T05:24:55.330Z,7.37
2022-11-13T05:30:16.604Z,7.33
2022-11-13T05:35:37.551Z,7.15
2022-11-13T05:41:08.327Z,6.24
2022-11-13T05:46:30.007Z,7.34
2022-11-13T05:51:50.698Z,5.49
2022-11-13T05:57:10.938Z,5.60
2022-11-13T06:02:31.168Z,6.47
2022-11-13T06:07:51.982Z,4.04
2022-11-13T06:13:12.461Z,4.40
2022-11-13T06:18:34.094Z,3.63
2022-11-13T06:23:54.835Z,4.30
2022-11-13T06:29:15.197Z,5.53
2022-11-13T06:34:35.856Z,5.57
2022-11-13T06:39:56.384Z,5.42
2022-11-13T06:45:16.810Z,4.25
2022-11-13T06:50:37.051Z,6.39
2022-11-13T06:55:57.571Z,2.97
2022-11-13T07:01:23.571Z,5.30
2022-11-13T07:06:44.348Z,6.13
2022-11-13T07:12:05.165Z,6.53
2022-11-13T07:17:25.726Z,6.53
2022-11-13T07:22:46.033Z,6.23
2022-11-13T07:28:06.869Z,5.33
2022-11-13T07:33:27.711Z,4.89
2022-11-13T07:38:55.560Z,6.43
2022-11-13T07:44:40.077Z,6.66
2022-11-13T07:50:05.570Z,5.09
2022-11-13T07:55:30.256Z,5.85
2022-11-13T08:00:50.758Z,6.58
2022-11-13T08:06:11.546Z,6.57
2022-11-13T08:11:31.972Z,5.40
2022-11-13T08:16:53.424Z,4.46
2022-11-13T08:22:14.236Z,6.10
2022-11-13T08:27:34.715Z,5.34
2022-11-13T08:32:55.516Z,6.72
2022-11-13T08:38:16.415Z,7.15
2022-11-13T08:43:41.207Z,5.11
2022-11-13T08:49:01.725Z,5.70
2022-11-13T08:54:22.486Z,4.26
2022-11-13T08:59:43.421Z,2.47
2022-11-13T09:05:04.348Z,1.75
2022-11-13T09:10:25.905Z,5.82
2022-11-13T09:15:46.158Z,6.08
2022-11-13T09:21:06.683Z,4.02
2022-11-13T09:26:27.189Z,1.59
2022-11-13T09:31:47.968Z,0.28
2022-11-13T09:37:08.267Z,0.79
2022-11-13T09:42:31.384Z,2.65
2022-11-13T09:47:54.546Z,2.40
2022-11-13T09:53:15.984Z,3.09
2022-11-13T09:58:48.644Z,2.72
2022-11-13T10:04:14.432Z,4.28
2022-11-13T10:09:41.612Z,1.49
2022-11-13T10:15:05.036Z,2.64
2022-11-13T10:20:40.106Z,3.54
2022-11-13T10:26:14.449Z,4.85
2022-11-13T10:31:48.944Z,2.95
2022-11-13T10:37:35.440Z,2.80
2022-11-13T10:43:15.476Z,3.21
2022-11-13T10:48:37.029Z,2.40
2022-11-13T10:53:59.258Z,4.71
2022-11-13T10:59:20.522Z,2.77
2022-11-13T11:04:41.054Z,3.09
2022-11-13T11:10:02.061Z,2.59
2022-11-13T11:15:29.250Z,5.08
2022-11-13T11:20:59.508Z,3.41
2022-11-13T11:26:49.533Z,3.36
2022-11-13T11:32:50.362Z,4.09
2022-11-13T11:38:25.618Z,3.95
2022-11-13T11:43:54.481Z,7.61
2022-11-13T11:49:15.576Z,4.86
2022-11-13T11:54:43.871Z,6.73
2022-11-13T12:00:12.163Z,4.91
2022-11-13T12:05:45.358Z,3.85
2022-11-13T12:11:06.038Z,4.19
2022-11-13T12:16:32.356Z,3.52
2022-11-13T12:22:21.555Z,4.55
2022-11-13T12:28:20.395Z,6.86
2022-11-13T12:33:49.969Z,7.90
2022-11-13T12:39:13.434Z,7.26
2022-11-13T12:45:05.575Z,5.01
2022-11-13T12:50:32.387Z,8.64
2022-11-13T12:56:02.023Z,6.00
2022-11-13T13:01:26.269Z,7.10
2022-11-13T13:07:13.610Z,6.19
2022-11-13T13:12:44.790Z,8.46
2022-11-13T13:18:17.706Z,9.76
2022-11-13T13:23:40.569Z,6.85
2022-11-13T13:29:12.250Z,5.90
2022-11-13T13:34:40.533Z,5.74
2022-11-13T13:40:13.101Z,6.68
2022-11-13T13:46:01.800Z,8.93
2022-11-13T13:51:22.744Z,11.66
2022-11-13T13:56:43.410Z,11.68
2022-11-13T14:02:15.774Z,8.29
2022-11-13T14:07:38.164Z,8.82
2022-11-13T14:12:58.704Z,6.89
2022-11-13T14:18:18.983Z,11.25
2022-11-13T14:24:00.145Z,9.47
2022-11-13T14:29:33.270Z,11.02
2022-11-13T14:34:59.761Z,8.55
2022-11-13T14:40:26.754Z,7.08
2022-11-13T14:46:02.787Z,9.70
2022-11-13T14:51:33.265Z,11.63
2022-11-13T14:56:53.767Z,10.75
2022-11-13T15:02:14.346Z,8.50
2022-11-13T15:07:41.351Z,8.71
2022-11-13T15:13:01.773Z,12.41
2022-11-13T15:18:22.951Z,8.97
2022-11-13T15:23:43.747Z,12.23
2022-11-13T15:29:05.953Z,10.19
2022-11-13T15:34:26.941Z,13.17
2022-11-13T15:39:47.495Z,14.00
2022-11-13T15:45:14.395Z,13.79
2022-11-13T15:50:35.588Z,13.56
2022-11-13T15:56:02.806Z,13.35
2022-11-13T16:01:23.260Z,12.50
2022-11-13T16:06:44.537Z,12.32
2022-11-13T16:12:05.408Z,11.29
2022-11-13T16:17:25.846Z,11.30
2022-11-13T16:22:46.290Z,9.84
2022-11-13T16:28:16.337Z,10.88
2022-11-13T16:33:39.978Z,10.95
2022-11-13T16:39:00.372Z,10.07
2022-11-13T16:44:21.172Z,10.38
2022-11-13T16:49:42.231Z,9.82
2022-11-13T16:55:06.265Z,10.36
2022-11-13T17:00:27.574Z,10.80
2022-11-13T17:05:52.251Z,10.40
2022-11-13T17:11:13.617Z,10.26
2022-11-13T17:16:34.335Z,10.43
2022-11-13T17:21:54.553Z,9.50
2022-11-13T17:27:14.878Z,10.23
2022-11-13T17:32:35.621Z,10.13
2022-11-13T17:37:56.316Z,9.28
2022-11-13T17:43:16.481Z,9.29
2022-11-13T17:48:38.353Z,9.69
2022-11-13T17:53:59.652Z,9.77
2022-11-13T17:59:20.500Z,7.43
2022-11-13T18:04:41.334Z,9.29
2022-11-13T18:10:02.041Z,9.60
2022-11-13T18:15:22.975Z,7.38
2022-11-13T18:20:43.158Z,7.48
2022-11-13T18:26:18.277Z,8.89
2022-11-13T18:31:39.044Z,9.20
2022-11-13T18:36:59.984Z,9.81
2022-11-13T18:42:20.741Z,9.32
2022-11-13T18:47:41.359Z,10.02
2022-11-13T18:53:02.213Z,8.93
2022-11-13T18:58:22.983Z,9.04
2022-11-13T19:04:08.213Z,9.90
2022-11-13T19:09:24.879Z,9.47
2022-11-13T19:14:45.456Z,9.97
2022-11-13T19:20:07.649Z,9.51
2022-11-13T19:25:27.995Z,9.50
2022-11-13T19:30:48.533Z,9.84
2022-11-13T19:36:12.380Z,9.73
2022-11-13T19:41:32.873Z,9.72
2022-11-13T19:46:53.870Z,9.32
2022-11-13T19:52:14.647Z,9.49
2022-11-13T19:57:35.347Z,9.28
2022-11-13T20:02:56.493Z,9.56
2022-11-13T20:08:17.009Z,9.16
2022-11-13T20:13:39.076Z,9.00
2022-11-13T20:18:59.528Z,8.41
2022-11-13T20:24:20.561Z,8.59
2022-11-13T20:29:41.050Z,8.72
2022-11-13T20:35:02.623Z,9.21
2022-11-13T20:40:22.946Z,8.04
2022-11-13T20:45:43.711Z,8.76
2022-11-13T20:51:12.800Z,8.41
2022-11-13T20:56:33.163Z,7.75
2022-11-13T21:01:54.046Z,8.20
2022-11-13T21:07:14.928Z,8.34
2022-11-13T21:12:35.277Z,8.26
2022-11-13T21:17:56.106Z,8.05
2022-11-13T21:23:16.815Z,8.17
2022-11-13T21:28:37.922Z,7.57
2022-11-13T21:33:59.376Z,8.17
2022-11-13T21:39:19.966Z,8.84
2022-11-13T21:44:40.690Z,8.32
2022-11-13T21:50:01.553Z,8.78
2022-11-13T21:55:22.228Z,8.55
2022-11-13T22:00:44.444Z,8.74
2022-11-13T22:06:26.075Z,8.87
2022-11-13T22:11:46.647Z,8.75
2022-11-13T22:17:07.167Z,9.01
2022-11-13T22:22:27.346Z,8.51
2022-11-13T22:27:48.456Z,8.85
2022-11-13T22:33:09.148Z,8.53
2022-11-13T22:38:29.838Z,9.32
2022-11-13T22:43:52.834Z,7.82
2022-11-13T22:49:13.580Z,9.13
2022-11-13T22:54:33.825Z,8.91
2022-11-13T22:59:54.454Z,8.07
2022-11-13T23:05:14.613Z,8.87
2022-11-13T23:10:35.305Z,8.74
2022-11-13T23:15:56.445Z,9.57
2022-11-13T23:21:18.066Z,8.72
2022-11-13T23:26:39.181Z,8.58
2022-11-13T23:31:59.645Z,8.20
2022-11-13T23:37:19.936Z,8.35
2022-11-13T23:42:54.661Z,8.16
2022-11-13T23:48:16.655Z,8.76
2022-11-13T23:53:37.089Z,8.88
2022-11-13T23:58:57.803Z,8.57
